createdAt,value
2022-10-23T00:01:36.586Z,1.98
2022-10-23T00:04:05.945Z,2.60
2022-10-23T00:06:33.841Z,2.47
2022-10-23T00:09:00.743Z,2.30
2022-10-23T00:11:29.612Z,2.25
2022-10-23T00:14:00.460Z,2.10
2022-10-23T00:16:27.897Z,1.90
2022-10-23T00:18:54.686Z,3.30
2022-10-23T00:21:21.416Z,3.50
2022-10-23T00:23:47.972Z,2.88
2022-10-23T00:26:15.830Z,3.58
2022-10-23T00:28:49.481Z,4.13
2022-10-23T00:31:16.655Z,4.20
2022-10-23T00:33:43.675Z,2.92
2022-10-23T00:36:12.542Z,3.22
2022-10-23T00:38:40.238Z,4.00
2022-10-23T00:41:09.018Z,2.95
2022-10-23T00:44:03.113Z,2.67
2022-10-23T00:46:30.149Z,2.20
2022-10-23T00:48:57.414Z,2.33
2022-10-23T00:51:27.600Z,3.22
2022-10-23T00:54:12.801Z,2.13
2022-10-23T00:56:46.204Z,2.08
2022-10-23T00:59:13.001Z,1.90
2022-10-23T01:01:39.808Z,2.17
2022-10-23T01:04:07.875Z,2.00
2022-10-23T01:06:55.662Z,2.00
2022-10-23T01:09:40.537Z,2.03
2022-10-23T01:12:23.965Z,2.67
2022-10-23T01:15:06.470Z,2.42
2022-10-23T01:17:44.546Z,2.20
2022-10-23T01:20:36.058Z,2.30
2022-10-23T01:23:31.699Z,2.20
2022-10-23T01:26:02.400Z,2.28
2022-10-23T01:28:36.290Z,2.22
2022-10-23T01:31:11.076Z,1.85
2022-10-23T01:33:45.025Z,2.38
2022-10-23T01:36:15.562Z,1.90
2022-10-23T01:38:50.410Z,2.10
2022-10-23T01:41:39.957Z,2.90
2022-10-23T01:44:23.909Z,2.10
2022-10-23T01:46:53.224Z,2.42
2022-10-23T01:49:22.616Z,1.55
2022-10-23T01:51:57.442Z,2.30
2022-10-23T01:54:29.552Z,2.85
2022-10-23T01:56:58.344Z,2.20
2022-10-23T01:59:37.196Z,2.03
2022-10-23T02:02:07.036Z,2.05
2022-10-23T02:04:38.392Z,2.13
2022-10-23T02:07:05.646Z,1.85
2022-10-23T02:09:33.573Z,2.20
2022-10-23T02:12:18.592Z,1.98
2022-10-23T02:15:01.252Z,2.03
2022-10-23T02:17:41.939Z,2.13
2022-10-23T02:20:34.747Z,1.90
2022-10-23T02:23:12.324Z,2.00
2022-10-23T02:25:59.929Z,1.67
2022-10-23T02:28:36.552Z,2.10
2022-10-23T02:31:08.551Z,1.63
2022-10-23T02:33:36.584Z,2.10
2022-10-23T02:36:03.296Z,1.65
2022-10-23T02:38:42.530Z,1.85
2022-10-23T02:41:23.950Z,1.85
2022-10-23T02:44:19.969Z,1.40
2022-10-23T02:47:17.394Z,1.65
2022-10-23T02:50:20.898Z,1.45
2022-10-23T02:52:59.285Z,1.50
2022-10-23T02:55:38.532Z,1.33
2022-10-23T02:58:10.569Z,1.25
2022-10-23T03:00:48.035Z,1.20
2022-10-23T03:03:20.692Z,1.35
2022-10-23T03:05:47.672Z,1.30
2022-10-23T03:08:14.663Z,1.10
2022-10-23T03:10:42.529Z,1.23
2022-10-23T03:13:10.687Z,1.50
2022-10-23T03:15:41.381Z,1.65
2022-10-23T03:18:12.116Z,1.45
2022-10-23T03:20:40.248Z,1.50
2022-10-23T03:23:06.830Z,1.20
2022-10-23T03:25:33.537Z,1.40
2022-10-23T03:28:01.558Z,1.10
2022-10-23T03:30:29.142Z,1.10
2022-10-23T03:32:55.789Z,1.58
2022-10-23T03:35:22.433Z,1.77
2022-10-23T03:37:48.997Z,1.15
2022-10-23T03:40:16.172Z,1.40
2022-10-23T03:42:42.753Z,2.33
2022-10-23T03:45:11.980Z,2.08
2022-10-23T03:47:41.489Z,1.75
2022-10-23T03:50:09.454Z,1.70
2022-10-23T03:52:36.586Z,2.33
2022-10-23T03:55:04.134Z,1.48
2022-10-23T03:57:30.719Z,1.33
2022-10-23T03:59:57.649Z,1.17
2022-10-23T04:02:30.481Z,1.42
2022-10-23T04:04:57.140Z,1.52
2022-10-23T04:07:23.950Z,1.00
2022-10-23T04:09:50.683Z,1.30
2022-10-23T04:12:17.276Z,1.55
2022-10-23T04:14:44.332Z,1.30
2022-10-23T04:17:11.062Z,1.58
2022-10-23T04:19:37.714Z,1.40
2022-10-23T04:22:04.338Z,1.92
2022-10-23T04:24:31.021Z,1.50
2022-10-23T04:26:57.621Z,1.60
2022-10-23T04:29:28.481Z,1.50
2022-10-23T04:31:55.285Z,1.48
2022-10-23T04:34:21.881Z,1.40
2022-10-23T04:36:48.534Z,1.33
2022-10-23T04:39:15.177Z,1.77
2022-10-23T04:41:41.844Z,1.88
2022-10-23T04:44:08.501Z,1.75
2022-10-23T04:46:38.915Z,1.90
2022-10-23T04:49:05.750Z,2.10
2022-10-23T04:51:50.232Z,1.30
2022-10-23T04:54:37.635Z,2.05
2022-10-23T04:57:22.453Z,1.70
2022-10-23T04:59:57.665Z,5.03
2022-10-23T05:02:24.766Z,3.95
2022-10-23T05:04:52.638Z,2.67
2022-10-23T05:07:39.382Z,1.60
2022-10-23T05:10:24.498Z,1.92
2022-10-23T05:13:12.176Z,2.40
2022-10-23T05:15:40.073Z,1.60
2022-10-23T05:18:15.521Z,1.50
2022-10-23T05:20:46.717Z,1.50
2022-10-23T05:23:17.115Z,1.65
2022-10-23T05:25:52.868Z,2.05
2022-10-23T05:28:19.541Z,2.50
2022-10-23T05:30:46.797Z,2.70
2022-10-23T05:33:14.496Z,2.08
2022-10-23T05:35:48.222Z,2.22
2022-10-23T05:38:16.830Z,1.52
2022-10-23T05:40:44.064Z,1.60
2022-10-23T05:43:16.528Z,1.40
2022-10-23T05:45:49.030Z,1.90
2022-10-23T05:48:41.701Z,1.55
2022-10-23T05:51:27.206Z,1.88
2022-10-23T05:54:01.480Z,1.83
2022-10-23T05:56:33.608Z,1.52
2022-10-23T05:59:22.030Z,1.67
2022-10-23T06:01:49.934Z,1.52
2022-10-23T06:04:28.858Z,1.60
2022-10-23T06:07:16.411Z,1.40
2022-10-23T06:09:45.349Z,1.70
2022-10-23T06:12:12.785Z,1.80
2022-10-23T06:14:42.577Z,1.33
2022-10-23T06:17:09.213Z,1.67
2022-10-23T06:19:41.342Z,1.60
2022-10-23T06:22:08.078Z,2.53
2022-10-23T06:24:46.190Z,1.50
2022-10-23T06:27:15.835Z,1.30
2022-10-23T06:29:44.242Z,1.75
2022-10-23T06:32:12.160Z,1.63
2022-10-23T06:34:40.821Z,1.40
2022-10-23T06:37:08.790Z,1.90
2022-10-23T06:39:46.632Z,1.80
2022-10-23T06:42:16.647Z,1.80
2022-10-23T06:44:52.432Z,2.03
2022-10-23T06:47:51.434Z,2.17
2022-10-23T06:50:38.360Z,1.65
2022-10-23T06:53:12.391Z,2.42
2022-10-23T06:55:45.262Z,3.00
2022-10-23T06:58:11.911Z,3.40
2022-10-23T07:00:54.022Z,3.13
2022-10-23T07:03:20.792Z,4.07
2022-10-23T07:05:47.720Z,2.70
2022-10-23T07:08:14.942Z,3.05
2022-10-23T07:10:44.204Z,2.28
2022-10-23T07:13:11.978Z,2.42
2022-10-23T07:15:40.648Z,2.60
2022-10-23T07:18:14.491Z,2.97
2022-10-23T07:20:59.809Z,2.88
2022-10-23T07:23:28.314Z,2.45
2022-10-23T07:25:55.323Z,2.65
2022-10-23T07:28:23.342Z,2.60
2022-10-23T07:30:57.833Z,2.70
2022-10-23T07:36:10.018Z,2.60
2022-10-23T07:38:36.883Z,3.13
2022-10-23T07:41:07.786Z,2.60
2022-10-23T07:43:37.620Z,2.25
2022-10-23T07:46:04.506Z,2.05
2022-10-23T07:48:37.234Z,2.53
2022-10-23T07:51:10.834Z,2.05
2022-10-23T07:53:43.414Z,2.10
2022-10-23T07:56:32.958Z,2.78
2022-10-23T07:59:28.823Z,2.00
2022-10-23T08:01:56.736Z,2.45
2022-10-23T08:04:37.132Z,2.90
2022-10-23T08:07:17.569Z,2.28
2022-10-23T08:09:47.919Z,2.78
2022-10-23T08:12:14.655Z,2.60
2022-10-23T08:14:41.276Z,2.63
2022-10-23T08:17:09.858Z,2.67
2022-10-23T08:19:59.099Z,2.50
2022-10-23T08:22:30.841Z,2.45
2022-10-23T08:24:57.554Z,1.95
2022-10-23T08:27:25.041Z,2.83
2022-10-23T08:29:52.400Z,2.45
2022-10-23T08:32:20.690Z,2.00
2022-10-23T08:34:53.184Z,2.15
2022-10-23T08:37:22.788Z,3.05
2022-10-23T08:39:51.398Z,2.30
2022-10-23T08:42:27.527Z,2.45
2022-10-23T08:45:05.941Z,3.55
2022-10-23T08:47:47.882Z,3.50
2022-10-23T08:50:49.200Z,3.40
2022-10-23T08:53:27.942Z,2.50
2022-10-23T08:56:14.275Z,2.85
2022-10-23T08:58:48.897Z,3.17
2022-10-23T09:01:40.187Z,3.00
2022-10-23T09:04:09.017Z,2.55
2022-10-23T09:06:35.613Z,3.05
2022-10-23T09:09:14.121Z,2.45
2022-10-23T09:11:52.434Z,2.30
2022-10-23T09:14:50.149Z,2.47
2022-10-23T09:17:19.861Z,3.03
2022-10-23T09:19:46.506Z,3.72
2022-10-23T09:22:13.672Z,2.95
2022-10-23T09:24:43.081Z,3.88
2022-10-23T09:27:16.811Z,3.83
2022-10-23T09:29:52.752Z,2.83
2022-10-23T09:32:20.384Z,2.13
2022-10-23T09:34:54.202Z,1.90
2022-10-23T09:37:29.749Z,2.10
2022-10-23T09:42:53.182Z,2.17
2022-10-23T09:45:25.032Z,3.00
2022-10-23T09:48:13.112Z,3.05
2022-10-23T09:50:57.325Z,3.20
2022-10-23T09:53:30.578Z,2.80
2022-10-23T09:56:00.748Z,3.28
2022-10-23T09:58:40.272Z,2.38
2022-10-23T10:01:07.011Z,2.60
2022-10-23T10:03:52.256Z,1.83
2022-10-23T10:06:29.964Z,2.60
2022-10-23T10:08:59.331Z,2.72
2022-10-23T10:11:46.169Z,2.58
2022-10-23T10:14:40.469Z,2.15
2022-10-23T10:17:37.630Z,1.88
2022-10-23T10:20:41.968Z,2.22
2022-10-23T10:23:42.445Z,1.63
2022-10-23T10:26:21.131Z,1.95
2022-10-23T10:29:08.945Z,1.63
2022-10-23T10:31:47.218Z,1.50
2022-10-23T10:34:48.302Z,1.70
2022-10-23T10:37:23.677Z,1.63
2022-10-23T10:42:44.314Z,2.28
2022-10-23T10:45:12.498Z,2.15
2022-10-23T10:47:53.410Z,2.17
2022-10-23T10:50:31.145Z,2.38
2022-10-23T10:53:43.386Z,1.95
2022-10-23T10:56:14.932Z,2.63
2022-10-23T10:58:55.389Z,3.58
2022-10-23T11:01:26.630Z,3.13
2022-10-23T11:04:17.872Z,2.65
2022-10-23T11:06:49.000Z,2.85
2022-10-23T11:09:26.794Z,2.13
2022-10-23T11:11:54.068Z,2.40
2022-10-23T11:14:26.563Z,2.50
2022-10-23T11:17:02.108Z,2.40
2022-10-23T11:22:27.785Z,2.30
2022-10-23T11:25:32.220Z,2.47
2022-10-23T11:28:13.922Z,2.45
2022-10-23T11:31:01.232Z,1.90
2022-10-23T11:33:41.426Z,11.05
2022-10-23T11:36:16.134Z,12.00
2022-10-23T11:38:53.767Z,5.80
2022-10-23T11:41:27.192Z,4.35
2022-10-23T11:44:08.897Z,4.77
2022-10-23T11:46:38.484Z,4.47
2022-10-23T11:49:19.220Z,3.92
2022-10-23T11:51:46.197Z,3.10
2022-10-23T11:54:15.316Z,2.95
2022-10-23T11:57:17.600Z,5.72
2022-10-23T11:59:47.298Z,3.05
2022-10-23T12:02:31.844Z,2.63
2022-10-23T12:05:09.377Z,2.92
2022-10-23T12:07:38.222Z,3.30
2022-10-23T12:10:26.644Z,3.60
2022-10-23T12:13:03.816Z,3.95
2022-10-23T12:15:31.990Z,3.70
2022-10-23T12:18:15.427Z,2.97
2022-10-23T12:20:56.263Z,4.05
2022-10-23T12:24:01.578Z,5.50
2022-10-23T12:26:37.266Z,7.15
2022-10-23T12:29:19.191Z,6.50
2022-10-23T12:32:01.077Z,3.53
2022-10-23T12:34:42.892Z,3.50
2022-10-23T12:37:31.132Z,4.55
2022-10-23T12:39:59.367Z,4.03
2022-10-23T12:42:28.188Z,2.58
2022-10-23T12:45:03.239Z,2.70
2022-10-23T12:47:30.799Z,2.50
2022-10-23T12:49:57.489Z,2.83
2022-10-23T12:52:27.262Z,2.90
2022-10-23T12:54:53.878Z,3.15
2022-10-23T12:57:25.877Z,2.92
2022-10-23T13:00:10.427Z,2.72
2022-10-23T13:02:37.274Z,4.22
2022-10-23T13:05:07.964Z,3.63
2022-10-23T13:07:41.225Z,2.72
2022-10-23T13:10:18.327Z,2.72
2022-10-23T13:13:13.792Z,3.15
2022-10-23T13:15:45.254Z,5.63
2022-10-23T13:18:14.504Z,4.20
2022-10-23T13:20:51.768Z,3.30
2022-10-23T13:23:33.704Z,3.00
2022-10-23T13:26:23.405Z,3.20
2022-10-23T13:28:50.364Z,2.70
2022-10-23T13:31:16.943Z,2.78
2022-10-23T13:34:02.969Z,2.97
2022-10-23T13:36:32.207Z,4.15
2022-10-23T13:39:09.887Z,4.13
2022-10-23T13:41:40.854Z,4.03
2022-10-23T13:44:07.641Z,3.83
2022-10-23T13:46:34.263Z,3.10
2022-10-23T13:49:00.881Z,4.22
2022-10-23T13:51:29.202Z,3.22
2022-10-23T13:53:57.571Z,3.30
2022-10-23T13:56:25.866Z,3.30
2022-10-23T13:58:52.634Z,3.35
2022-10-23T14:01:30.778Z,4.80
2022-10-23T14:03:58.561Z,4.95
2022-10-23T14:06:25.688Z,6.05
2022-10-23T14:08:52.506Z,4.75
2022-10-23T14:11:20.093Z,4.60
2022-10-23T14:13:46.932Z,3.70
2022-10-23T14:16:15.722Z,4.68
2022-10-23T14:18:42.410Z,4.72
2022-10-23T14:21:11.990Z,4.25
2022-10-23T14:23:38.679Z,4.70
2022-10-23T14:26:11.320Z,5.35
2022-10-23T14:28:38.530Z,9.40
2022-10-23T14:31:06.903Z,7.20
2022-10-23T14:33:33.553Z,5.82
2022-10-23T14:36:00.622Z,4.03
2022-10-23T14:38:27.607Z,3.33
2022-10-23T14:40:54.389Z,3.95
2022-10-23T14:43:22.666Z,4.78
2022-10-23T14:45:49.381Z,5.15
2022-10-23T14:48:16.124Z,5.00
2022-10-23T14:50:45.488Z,5.55
2022-10-23T14:53:12.446Z,5.35
2022-10-23T14:55:39.340Z,5.35
2022-10-23T14:58:06.602Z,4.57
2022-10-23T15:00:33.632Z,4.95
2022-10-23T15:03:00.281Z,5.05
2022-10-23T15:05:26.881Z,4.20
2022-10-23T15:07:55.875Z,4.55
2022-10-23T15:10:22.444Z,4.57
2022-10-23T15:12:49.405Z,4.97
2022-10-23T15:15:16.975Z,4.72
2022-10-23T15:17:43.733Z,4.50
2022-10-23T15:20:10.640Z,4.55
2022-10-23T15:22:37.345Z,4.20
2022-10-23T15:25:04.455Z,5.10
2022-10-23T15:27:31.126Z,6.18
2022-10-23T15:29:57.739Z,6.00
2022-10-23T15:32:24.522Z,7.80
2022-10-23T15:34:52.460Z,7.85
2022-10-23T15:37:19.320Z,7.07
2022-10-23T15:39:46.122Z,6.90
2022-10-23T15:42:12.885Z,6.43
2022-10-23T15:44:40.310Z,5.57
2022-10-23T15:47:07.225Z,6.30
2022-10-23T15:49:34.037Z,5.93
2022-10-23T15:52:02.211Z,5.93
2022-10-23T15:54:31.918Z,5.85
2022-10-23T15:57:00.101Z,9.52
2022-10-23T15:59:28.337Z,9.98
2022-10-23T16:01:55.796Z,7.90
2022-10-23T16:04:22.910Z,8.13
2022-10-23T16:06:49.892Z,9.13
2022-10-23T16:09:17.071Z,7.07
2022-10-23T16:11:44.275Z,6.88
2022-10-23T16:14:16.541Z,7.53
2022-10-23T16:16:43.426Z,7.15
2022-10-23T16:19:10.938Z,7.00
2022-10-23T16:21:37.778Z,7.55
2022-10-23T16:24:07.066Z,8.02
2022-10-23T16:26:35.230Z,7.95
2022-10-23T16:29:05.349Z,8.75
2022-10-23T16:31:32.577Z,8.98
2022-10-23T16:34:00.906Z,9.23
2022-10-23T16:36:28.425Z,10.52
2022-10-23T16:39:10.920Z,8.90
2022-10-23T16:41:56.057Z,10.18
2022-10-23T16:44:26.879Z,11.93
2022-10-23T16:46:58.272Z,14.07
2022-10-23T16:49:25.005Z,19.50
2022-10-23T16:51:51.600Z,9.80
2022-10-23T16:54:18.316Z,7.50
2022-10-23T16:56:45.221Z,8.82
2022-10-23T16:59:11.930Z,11.98
2022-10-23T17:01:38.679Z,10.27
2022-10-23T17:04:07.478Z,9.95
2022-10-23T17:06:34.640Z,12.63
2022-10-23T17:09:02.652Z,11.52
2022-10-23T17:11:32.318Z,11.63
2022-10-23T17:14:05.075Z,13.55
2022-10-23T17:16:41.059Z,11.73
2022-10-23T17:19:20.963Z,11.82
2022-10-23T17:21:55.168Z,13.25
2022-10-23T17:24:23.380Z,12.35
2022-10-23T17:26:50.093Z,13.40
2022-10-23T17:29:17.010Z,12.32
2022-10-23T17:31:47.109Z,11.15
2022-10-23T17:34:17.198Z,11.02
2022-10-23T17:36:46.747Z,10.35
2022-10-23T17:39:15.955Z,9.93
2022-10-23T17:41:43.588Z,11.20
2022-10-23T17:44:11.057Z,10.80
2022-10-23T17:46:37.824Z,10.13
2022-10-23T17:49:05.227Z,10.50
2022-10-23T17:51:35.270Z,9.98
2022-10-23T17:54:08.146Z,10.57
2022-10-23T17:56:37.552Z,10.68
2022-10-23T17:59:15.089Z,10.25
2022-10-23T18:01:46.828Z,11.88
2022-10-23T18:04:14.653Z,13.43
2022-10-23T18:06:44.992Z,12.00
2022-10-23T18:09:12.473Z,10.55
2022-10-23T18:11:45.253Z,22.40
2022-10-23T18:14:14.072Z,15.48
2022-10-23T18:16:41.729Z,11.55
2022-10-23T18:19:08.880Z,13.07
2022-10-23T18:21:36.400Z,11.52
2022-10-23T18:24:03.619Z,10.43
2022-10-23T18:26:34.804Z,11.55
2022-10-23T18:29:04.095Z,11.23
2022-10-23T18:31:30.716Z,17.35
2022-10-23T18:34:12.239Z,21.88
2022-10-23T18:36:40.711Z,16.75
2022-10-23T18:39:09.692Z,17.15
2022-10-23T18:41:39.637Z,16.48
2022-10-23T18:44:07.112Z,17.52
2022-10-23T18:46:34.526Z,17.58
2022-10-23T18:49:01.608Z,19.48
2022-10-23T18:51:30.666Z,16.05
2022-10-23T18:53:59.794Z,12.40
2022-10-23T18:56:27.819Z,13.90
2022-10-23T18:58:59.452Z,13.45
2022-10-23T19:01:27.515Z,12.68
2022-10-23T19:06:23.791Z,12.30
2022-10-23T19:08:51.163Z,11.85
2022-10-23T19:11:20.836Z,12.80
2022-10-23T19:13:47.432Z,11.68
2022-10-23T19:16:26.035Z,11.50
2022-10-23T19:18:59.415Z,11.50
2022-10-23T19:21:31.701Z,11.35
2022-10-23T19:24:01.656Z,10.82
2022-10-23T19:26:30.165Z,12.23
2022-10-23T19:28:57.710Z,11.95
2022-10-23T19:31:26.369Z,12.73
2022-10-23T19:33:53.513Z,12.63
2022-10-23T19:36:23.549Z,13.32
2022-10-23T19:38:50.835Z,13.00
2022-10-23T19:41:18.884Z,12.00
2022-10-23T19:43:45.851Z,12.73
2022-10-23T19:46:12.640Z,12.75
2022-10-23T19:48:44.142Z,12.65
2022-10-23T19:51:13.255Z,13.80
2022-10-23T19:53:41.235Z,11.77
2022-10-23T19:56:10.512Z,11.98
2022-10-23T19:58:37.737Z,13.68
2022-10-23T20:01:12.570Z,12.82
2022-10-23T20:03:40.881Z,13.00
2022-10-23T20:06:12.955Z,12.50
2022-10-23T20:08:40.254Z,12.88
2022-10-23T20:11:08.268Z,12.93
2022-10-23T20:13:35.553Z,12.07
2022-10-23T20:16:02.171Z,11.07
2022-10-23T20:18:29.645Z,11.93
2022-10-23T20:20:56.267Z,9.63
2022-10-23T20:23:23.097Z,10.88
2022-10-23T20:25:49.692Z,10.43
2022-10-23T20:28:18.734Z,10.65
2022-10-23T20:30:46.019Z,10.68
2022-10-23T20:33:12.835Z,10.15
2022-10-23T20:35:41.418Z,11.32
2022-10-23T20:38:08.601Z,11.30
2022-10-23T20:40:35.802Z,10.55
2022-10-23T20:43:02.931Z,10.27
2022-10-23T20:45:29.726Z,10.30
2022-10-23T20:47:56.388Z,10.35
2022-10-23T20:50:24.104Z,9.73
2022-10-23T20:52:51.791Z,11.07
2022-10-23T20:55:19.017Z,11.07
2022-10-23T20:57:46.087Z,11.27
2022-10-23T21:00:13.223Z,12.20
2022-10-23T21:02:39.994Z,12.27
2022-10-23T21:05:07.015Z,11.50
2022-10-23T21:07:33.636Z,10.75
2022-10-23T21:10:01.038Z,9.73
2022-10-23T21:12:27.658Z,8.95
2022-10-23T21:14:54.276Z,9.35
2022-10-23T21:17:20.979Z,8.95
2022-10-23T21:19:47.693Z,10.30
2022-10-23T21:22:14.684Z,10.02
2022-10-23T21:24:41.243Z,10.25
2022-10-23T21:27:07.903Z,8.90
2022-10-23T21:29:34.563Z,8.75
2022-10-23T21:32:01.644Z,8.75
2022-10-23T21:34:29.232Z,9.15
2022-10-23T21:37:13.445Z,9.13
2022-10-23T21:39:42.543Z,9.43
2022-10-23T21:42:09.201Z,9.70
2022-10-23T21:44:35.962Z,8.68
2022-10-23T21:47:02.733Z,8.50
2022-10-23T21:49:29.377Z,8.48
2022-10-23T21:51:56.008Z,8.93
2022-10-23T21:54:22.958Z,8.13
2022-10-23T21:56:53.394Z,8.02
2022-10-23T21:59:22.650Z,7.80
2022-10-23T22:01:50.014Z,8.02
2022-10-23T22:04:19.040Z,8.35
2022-10-23T22:06:47.500Z,8.27
2022-10-23T22:09:19.156Z,8.15
2022-10-23T22:11:45.865Z,7.55
2022-10-23T22:14:12.478Z,8.77
2022-10-23T22:16:39.165Z,8.40
2022-10-23T22:19:05.716Z,8.60
2022-10-23T22:21:32.622Z,8.65
2022-10-23T22:24:00.573Z,8.45
2022-10-23T22:26:36.010Z,8.77
2022-10-23T22:29:06.033Z,9.32
2022-10-23T22:31:33.910Z,8.68
2022-10-23T22:34:13.081Z,10.02
2022-10-23T22:36:48.589Z,9.68
2022-10-23T22:39:15.305Z,9.25
2022-10-23T22:42:35.916Z,10.50
2022-10-23T22:45:02.786Z,10.35
2022-10-23T22:47:30.258Z,10.93
2022-10-23T22:49:56.927Z,10.32
2022-10-23T22:52:23.465Z,10.90
2022-10-23T22:54:50.155Z,11.20
2022-10-23T22:57:16.814Z,10.18
2022-10-23T22:59:43.469Z,10.88
2022-10-23T23:02:10.081Z,10.43
2022-10-23T23:04:38.161Z,10.18
2022-10-23T23:07:09.649Z,10.88
2022-10-23T23:09:41.188Z,9.90
2022-10-23T23:12:09.602Z,10.77
2022-10-23T23:14:36.555Z,10.35
2022-10-23T23:17:03.928Z,10.80
2022-10-23T23:19:30.693Z,9.88
2022-10-23T23:21:59.073Z,11.23
2022-10-23T23:24:26.126Z,11.30
2022-10-23T23:26:53.054Z,12.02
2022-10-23T23:29:19.624Z,11.48
2022-10-23T23:31:46.371Z,12.70
2022-10-23T23:34:12.915Z,11.93
2022-10-23T23:36:39.575Z,11.68
2022-10-23T23:39:06.240Z,13.55
2022-10-23T23:41:32.899Z,12.00
2022-10-23T23:43:59.534Z,11.77
2022-10-23T23:46:26.555Z,12.25
2022-10-23T23:48:53.226Z,11.05
2022-10-23T23:51:25.029Z,12.55
2022-10-23T23:53:52.318Z,13.73
2022-10-23T23:56:19.665Z,12.77
2022-10-23T23:58:46.447Z,13.93
